地図

経路データ

SID SEASON NUMBER BASIN SUBBASIN NAME ISO_TIME NATURE LAT LON WMO_WIND WMO_PRES WMO_AGENCY TRACK_TYPE DIST2LAND LANDFALL IFLAG USA_AGENCY USA_ATCF_ID USA_LAT USA_LON USA_RECORD USA_STATUS USA_WIND USA_PRES USA_SSHS USA_R34_NE USA_R34_SE USA_R34_SW USA_R34_NW USA_R50_NE USA_R50_SE USA_R50_SW USA_R50_NW USA_R64_NE USA_R64_SE USA_R64_SW USA_R64_NW USA_POCI USA_ROCI USA_RMW USA_EYE TOKYO_LAT TOKYO_LON TOKYO_GRADE TOKYO_WIND TOKYO_PRES TOKYO_R50_DIR TOKYO_R50_LONG TOKYO_R50_SHORT TOKYO_R30_DIR TOKYO_R30_LONG TOKYO_R30_SHORT TOKYO_LAND CMA_LAT CMA_LON CMA_CAT CMA_WIND CMA_PRES HKO_LAT HKO_LON HKO_CAT HKO_WIND HKO_PRES NEWDELHI_LAT NEWDELHI_LON NEWDELHI_GRADE NEWDELHI_WIND NEWDELHI_PRES NEWDELHI_CI NEWDELHI_DP NEWDELHI_POCI REUNION_LAT REUNION_LON REUNION_TYPE REUNION_WIND REUNION_PRES REUNION_TNUM REUNION_CI REUNION_RMW REUNION_R34_NE REUNION_R34_SE REUNION_R34_SW REUNION_R34_NW REUNION_R50_NE REUNION_R50_SE REUNION_R50_SW REUNION_R50_NW REUNION_R64_NE REUNION_R64_SE REUNION_R64_SW REUNION_R64_NW BOM_LAT BOM_LON BOM_TYPE BOM_WIND BOM_PRES BOM_TNUM BOM_CI BOM_RMW BOM_R34_NE BOM_R34_SE BOM_R34_SW BOM_R34_NW BOM_R50_NE BOM_R50_SE BOM_R50_SW BOM_R50_NW BOM_R64_NE BOM_R64_SE BOM_R64_SW BOM_R64_NW BOM_ROCI BOM_POCI BOM_EYE BOM_POS_METHOD BOM_PRES_METHOD NADI_LAT NADI_LON NADI_CAT NADI_WIND NADI_PRES WELLINGTON_LAT WELLINGTON_LON WELLINGTON_WIND WELLINGTON_PRES DS824_LAT DS824_LON DS824_STAGE DS824_WIND DS824_PRES TD9636_LAT TD9636_LON TD9636_STAGE TD9636_WIND TD9636_PRES TD9635_LAT TD9635_LON TD9635_WIND TD9635_PRES TD9635_ROCI NEUMANN_LAT NEUMANN_LON NEUMANN_CLASS NEUMANN_WIND NEUMANN_PRES MLC_LAT MLC_LON MLC_CLASS MLC_WIND MLC_PRES USA_GUST BOM_GUST BOM_GUST_PER REUNION_GUST REUNION_GUST_PER USA_SEAHGT USA_SEARAD_NE USA_SEARAD_SE USA_SEARAD_SW USA_SEARAD_NW STORM_SPEED STORM_DIR
1982054S13123 1982 14 SI WA IAN 1982-02-23 03:00:00 NR -13.2000 122.700 20 1006 bom main 312 302 ______O_______ -1 -13.2000 122.700 20 20 1006 1.00000 14 213
1982054S13123 1982 14 SI WA IAN 1982-02-23 06:00:00 TS -13.8000 122.300 20 1004 bom main 302 293 ______O_____O_ -1 -13.8000 122.300 20 20 1004 1.00000 -13.8000 122.300 TC 20 1004 13 227
1982054S13123 1982 14 SI WA IAN 1982-02-23 09:00:00 TS -14.0718 121.727 main 297 297 ______P_____P_ -1 -14.1012 121.740 20 20 1003 -14.0277 121.708 TC 22 1003 13 247
1982054S13123 1982 14 SI WA IAN 1982-02-23 12:00:00 TS -14.3000 121.100 20 1002 bom main 312 311 ______O_____O_ -1 -14.3000 121.100 20 20 1002 1.00000 -14.3000 121.100 TC 25 1002 13 244
1982054S13123 1982 14 SI WA IAN 1982-02-23 15:00:00 TS -14.6550 120.477 main 324 324 ______P_____P_ -1 -14.6550 120.477 20 20 1001 -14.6550 120.477 TC 25 1001 14 235
1982054S13123 1982 14 SI WA IAN 1982-02-23 18:00:00 TS -15.1000 119.900 20 1001 bom main 340 334 ______O_____O_ -1 -15.1000 119.900 20 20 1001 1.50000 -15.1000 119.900 TC 25 1001 14 225
1982054S13123 1982 14 SI WA IAN 1982-02-23 21:00:00 TS -15.6722 119.435 main 346 341 ______P_____P_ -1 -15.6722 119.435 20 22 1001 -15.6722 119.435 TC 25 1001 14 218
1982054S13123 1982 14 SI WA IAN 1982-02-24 00:00:00 TS -16.2000 119.000 25 1001 bom main 362 362 ______O_____O_ -1 -16.2000 119.000 20 25 1001 1.50000 -16.2000 119.000 TC 25 1001 12 226
1982054S13123 1982 14 SI WA IAN 1982-02-24 03:00:00 TS -16.5249 118.515 main 402 392 ______P_____P_ -1 -16.5249 118.515 20 25 1001 -16.5249 118.515 TC 25 1001 11 242
1982054S13123 1982 14 SI WA IAN 1982-02-24 06:00:00 TS -16.7000 118.000 25 1001 bom main 397 397 ______O_____O_ -1 -16.7000 118.000 20 25 1001 1.50000 -16.7000 118.000 TC 25 1001 11 256
1982054S13123 1982 14 SI WA IAN 1982-02-24 09:00:00 TS -16.7801 117.427 main 409 409 ______P_____P_ -1 -16.7801 117.427 20 25 1001 -16.7801 117.427 TC 25 1001 11 265
1982054S13123 1982 14 SI WA IAN 1982-02-24 12:00:00 TS -16.8000 116.900 25 1001 bom main 422 422 ______O_____O_ -1 -16.8000 116.900 20 25 1001 1.50000 -16.8000 116.900 TC 25 1001 9 265
1982054S13123 1982 14 SI WA IAN 1982-02-24 15:00:00 TS -16.8498 116.520 main 425 414 ______P_____P_ -1 -16.8498 116.520 20 25 1000 -16.8498 116.520 TC 27 1000 7 262
1982054S13123 1982 14 SI WA IAN 1982-02-24 18:00:00 TS -16.9000 116.200 25 1000 bom main 417 411 ______O_____O_ -1 -16.9000 116.200 20 25 1000 1.50000 -16.9000 116.200 TC 30 1000 7 261
1982054S13123 1982 14 SI WA IAN 1982-02-24 21:00:00 TS -16.9575 115.835 main 413 413 ______P_____P_ -1 -16.9575 115.835 20 25 1000 -16.9575 115.835 TC 30 1000 7 261
1982054S13123 1982 14 SI WA IAN 1982-02-25 00:00:00 TS -17.0000 115.500 25 1000 bom main 422 422 ______O_____O_ -1 -17.0000 115.500 20 25 1000 1.50000 -17.0000 115.500 TC 30 1000 6 265
1982054S13123 1982 14 SI WA IAN 1982-02-25 03:00:00 TS -17.0074 115.242 main 432 432 ______P_____P_ -1 -17.0074 115.242 20 25 1000 -17.0074 115.242 TC 30 1000 5 270
1982054S13123 1982 14 SI WA IAN 1982-02-25 06:00:00 TS -17.0000 115.000 25 1000 bom main 440 440 ______O_____O_ -1 -17.0000 115.000 20 25 1000 1.50000 -17.0000 115.000 TC 30 1000 5 272
1982054S13123 1982 14 SI WA IAN 1982-02-25 09:00:00 TS -16.9925 114.707 main 454 454 ______P_____P_ -1 -16.9925 114.707 20 25 1000 -16.9925 114.707 TC 30 1000 6 270
1982054S13123 1982 14 SI WA IAN 1982-02-25 12:00:00 TS -17.0000 114.400 25 1000 bom main 469 469 ______O_____O_ -1 -17.0000 114.400 20 25 1000 2.00000 -17.0000 114.400 TC 30 1000 6 265
1982054S13123 1982 14 SI WA IAN 1982-02-25 15:00:00 TS -17.0425 114.100 main 486 477 ______P_____P_ -1 -17.0350 114.100 20 25 1000 -17.0500 114.100 TC 30 1000 6 260
1982054S13123 1982 14 SI WA IAN 1982-02-25 18:00:00 TS -17.1000 113.800 25 1000 bom main 494 494 ______O_____O_ -1 -17.1000 113.800 20 25 1000 2.00000 -17.1000 113.800 TC 30 1000 6 262
1982054S13123 1982 14 SI WA IAN 1982-02-25 21:00:00 TS -17.1200 113.500 main 511 511 ______P_____P_ -1 -17.1400 113.500 20 27 999 -17.1000 113.500 TC 30 999 6 260
1982054S13123 1982 14 SI WA IAN 1982-02-26 00:00:00 TS -17.2000 113.200 30 999 bom main 520 513 ______O_____O_ -1 -17.3000 113.200 20 30 999 2.50000 -17.1000 113.200 TC 30 999 6 237
1982054S13123 1982 14 SI WA IAN 1982-02-26 03:00:00 TS -17.4571 112.953 main 503 489 ______P_____P_ -1 -17.8021 112.953 20 30 999 -17.1121 112.952 TC 30 999 8 229
1982054S13123 1982 14 SI WA IAN 1982-02-26 06:00:00 TS -17.7000 112.600 30 999 bom main 492 488 ______O_____O_ -1 -18.2000 112.600 20 30 999 2.50000 -17.2000 112.600 TC 30 999 10 252
1982054S13123 1982 14 SI WA IAN 1982-02-26 09:00:00 TS -17.7833 111.920 main 508 508 ______P_____P_ -1 -18.0633 111.919 20 30 999 -17.5033 111.921 TC 30 999 12 270
1982054S13123 1982 14 SI WA IAN 1982-02-26 12:00:00 TS -17.7000 111.300 30 999 bom main 548 548 ______O_____O_ -1 -17.7000 111.300 20 30 999 2.50000 -17.7000 111.300 TC 30 999 9 294
1982054S13123 1982 14 SI WA IAN 1982-02-26 15:00:00 TS -17.4221 111.072 main 587 587 ______P_____P_ -1 -17.3846 111.073 20 30 999 -17.4596 111.072 TC 30 999 7 3
1982054S13123 1982 14 SI WA IAN 1982-02-26 18:00:00 TS -17.0000 111.340 30 999 bom main 616 612 O_____O___O_O_ jtwc_sh SH211982 -16.6000 112.300 25 -1 -17.1000 111.100 20 30 999 2.50000 -16.6000 112.300 1 25 -17.1000 111.100 TC 30 999 7 33
1982054S13123 1982 14 SI WA IAN 1982-02-26 21:00:00 TS -16.8609 111.460 main 617 617 P_____P___P_P_ SH211982 -16.7603 111.860 25 -1 -16.9050 111.240 20 30 999 -16.7851 111.937 1 26 -16.9050 111.240 TC 30 999 2 50
1982054S13123 1982 14 SI WA IAN 1982-02-27 00:00:00 TS -16.8505 111.523 30 999 bom main 617 617 O_____O___P_O_ jtwc_sh SH211982 -16.9000 111.500 25 -1 -16.8000 111.500 20 30 999 2.50000 -16.9358 111.608 1 27 -16.8000 111.500 TC 30 999 1 137
1982054S13123 1982 14 SI WA IAN 1982-02-27 03:00:00 TS -16.9020 111.508 main 617 617 P_____P___P_P_ SH211982 -16.9949 111.282 27 -1 -16.7715 111.781 20 30 999 -17.0186 111.351 1 28 -16.7715 111.781 TC 30 999 1 0
1982054S13123 1982 14 SI WA IAN 1982-02-27 06:00:00 TS -16.9333 111.500 30 999 bom main 617 617 O_____O___O_O_ jtwc_sh SH211982 -17.0000 111.200 30 -1 -16.8000 112.100 20 30 999 2.50000 -17.0000 111.200 1 30 -16.8000 112.100 TC 30 999 1 313
1982054S13123 1982 14 SI WA IAN 1982-02-27 09:00:00 TS -16.8749 111.463 main 617 617 P_________P___ SH211982 -16.8800 111.205 30 -1 20 -16.8648 111.180 1 31 TC 3 320
1982054S13123 1982 14 SI WA IAN 1982-02-27 12:00:00 NR -16.6849 111.283 30 999 bom main 646 646 O_________P___ jtwc_sh SH211982 -16.7000 111.300 30 -1 20 -16.6698 111.266 1 32 TC 4 354
1982054S13123 1982 14 SI WA IAN 1982-02-27 15:00:00 NR -16.4975 111.427 main 662 658 P_________P___ SH211982 -16.5050 111.435 32 -1 20 -16.4899 111.418 1 33 TC 4 47
1982054S13123 1982 14 SI WA IAN 1982-02-27 18:00:00 NR -16.4000 111.600 30 999 bom main 664 650 O_________O___ jtwc_sh SH211982 -16.4000 111.600 35 0 20 -16.4000 111.600 2 35 TC 3 85
1982054S13123 1982 14 SI WA IAN 1982-02-27 21:00:00 NR -16.4741 111.718 main 650 636 P_________P___ SH211982 -16.4900 111.742 35 0 20 -16.4582 111.693 2 35 TC 4 136
1982054S13123 1982 14 SI WA IAN 1982-02-28 00:00:00 NR -16.6595 111.858 30 999 bom main 621 597 O_________P___ jtwc_sh SH211982 -16.7000 111.900 35 0 20 -16.6191 111.817 2 35 TC 5 144
1982054S13123 1982 14 SI WA IAN 1982-02-28 03:00:00 NR -16.8839 112.031 main 597 555 P_________P___ SH211982 -16.8973 112.055 35 0 20 -16.8704 112.006 2 35 TC 7 142
1982054S13123 1982 14 SI WA IAN 1982-02-28 06:00:00 NR -17.2000 112.300 30 999 bom main 555 499 O_________O___ jtwc_sh SH211982 -17.2000 112.300 35 0 20 -17.2000 112.300 2 35 TC 10 141
1982054S13123 1982 14 SI WA IAN 1982-02-28 09:00:00 NR -17.6622 112.695 main 489 433 P_________P___ SH211982 -17.6774 112.682 35 0 20 -17.6471 112.708 2 36 TC 13 138
1982054S13123 1982 14 SI WA IAN 1982-02-28 12:00:00 NR -18.1761 113.212 30 999 bom main 422 355 O_________P___ jtwc_sh SH211982 -18.2000 113.200 35 0 20 -18.1522 113.224 2 37 TC 15 133
1982054S13123 1982 14 SI WA IAN 1982-02-28 15:00:00 NR -18.6455 113.817 main 355 276 P_________P___ SH211982 -18.6599 113.805 37 0 20 -18.6311 113.829 2 38 TC 15 124
1982054S13123 1982 14 SI WA IAN 1982-02-28 18:00:00 NR -19.0000 114.500 30 999 bom main 276 216 O_________O___ jtwc_sh SH211982 -19.0000 114.500 40 0 20 -19.0000 114.500 2 40 TC 14 111
1982054S13123 1982 14 SI WA IAN 1982-02-28 21:00:00 NR -19.1678 115.229 main 216 172 P_________P___ SH211982 -19.1674 115.235 40 0 20 -19.1683 115.222 2 40 TC 14 98
1982054S13123 1982 14 SI WA IAN 1982-03-01 00:00:00 NR -19.2081 115.997 30 999 bom main 172 156 O_________P___ jtwc_sh SH211982 -19.2000 116.000 40 0 20 -19.2162 115.994 2 40 TC 15 90
1982054S13123 1982 14 SI WA IAN 1982-03-01 03:00:00 NR -19.1766 116.771 main 156 156 P_________P___ SH211982 -19.1724 116.773 40 0 20 -19.1808 116.769 2 40 TC 14 86
1982054S13123 1982 14 SI WA IAN 1982-03-01 06:00:00 NR -19.1000 117.500 30 999 bom main 158 154 O_________O___ jtwc_sh SH211982 -19.1000 117.500 40 0 20 -19.1000 117.500 2 40 TC 13 73
1982054S13123 1982 14 SI WA IAN 1982-03-01 09:00:00 TS -18.7840 118.115 main 178 172 P_________P___ SH211982 -19.0646 118.130 40 0 20 -19.0554 118.154 2 38 TC 12 62
1982054S13123 1982 14 SI WA IAN 1982-03-01 12:00:00 TS -18.5580 118.585 30 997 bom main 175 175 O_____O___P_O_ jtwc_sh SH211982 -19.0000 118.700 40 0 -17.7000 118.300 20 30 997 2.50000 -18.9741 118.755 2 37 -17.7000 118.300 TC 35 997 9 61
1982054S13123 1982 14 SI WA IAN 1982-03-01 15:00:00 TS -18.3405 118.947 main 202 201 P_____P___P_P_ SH211982 -18.8799 119.272 37 0 -17.6221 118.477 20 32 996 -18.8557 119.304 2 36 -17.6221 118.477 TC 37 996 8 54
1982054S13123 1982 14 SI WA IAN 1982-03-01 18:00:00 TS -18.1000 119.250 35 995 bom main 218 218 O_____O___O_O_ jtwc_sh SH211982 -18.7000 119.800 35 0 -17.5000 118.700 30 35 995 3.00000 -18.7000 119.800 2 35 -17.5000 118.700 TC 40 995 8 57
1982054S13123 1982 14 SI WA IAN 1982-03-01 21:00:00 TS -17.8980 119.661 main 225 205 P_____P___P_P_ SH211982 -18.4574 120.280 35 0 -17.3137 119.040 30 37 994 -18.4983 120.283 2 33 -17.3226 119.043 TC 40 994 9 60
1982054S13123 1982 14 SI WA IAN 1982-03-02 00:00:00 TS -17.6661 120.053 40 993 bom main 196 181 O_____O___P_O_ jtwc_sh SH211982 -18.2000 120.700 35 0 -17.1000 119.400 30 40 993 3.00000 -18.2645 120.713 2 32 -17.1000 119.400 TC 40 993 8 56
1982054S13123 1982 14 SI WA IAN 1982-03-02 03:00:00 TS -17.4358 120.377 40 992 bom main 181 162 P_____O___P_P_ SH211982 -17.9849 121.080 32 -1 -16.9000 119.700 30 40 992 3.00000 -18.0235 121.086 2 31 -16.8348 119.642 TC 42 992 7 51
1982054S13123 1982 14 SI WA IAN 1982-03-02 06:00:00 TS -17.2000 120.650 40 991 bom main 155 129 O_____O___O_O_ jtwc_sh SH211982 -17.8000 121.400 30 -1 -16.6000 119.900 30 40 991 3.00000 -17.8000 121.400 1 30 -16.6000 119.900 TC 45 991 7 57
1982054S13123 1982 14 SI WA IAN 1982-03-02 09:00:00 TS -17.0573 120.992 45 990 bom main 129 101 P_____O___P_P_ SH211982 -17.6425 121.680 30 -1 -16.5000 120.300 30 45 990 3.00000 -17.6241 121.702 1 30 -16.4626 120.285 TC 47 990 7 68
1982054S13123 1982 14 SI WA IAN 1982-03-02 12:00:00 TS -16.9424 121.311 50 989 bom main 105 77 O_____O___P_O_ jtwc_sh SH211982 -17.5000 121.900 30 -1 -16.4000 120.700 30 50 989 3.00000 -17.4697 121.942 1 30 -16.4000 120.700 TC 50 989 6 71
1982054S13123 1982 14 SI WA IAN 1982-03-02 15:00:00 TS -16.8626 121.595 50 988 bom main 77 62 P_____O___P_P_ SH211982 -17.3500 122.095 30 -1 -16.4000 121.100 30 50 988 3.50000 -17.3304 122.111 1 30 -16.3700 121.072 TC 50 988 5 73
1982054S13123 1982 14 SI WA IAN 1982-03-02 18:00:00 TS -16.8000 121.800 50 987 bom main 62 54 O_____O___O_O_ jtwc_sh SH211982 -17.2000 122.200 30 -1 -16.4000 121.400 30 50 987 3.50000 -17.2000 122.200 1 30 -16.4000 121.400 TC 50 987 4 74
1982054S13123 1982 14 SI WA IAN 1982-03-02 21:00:00 TS -16.7657 121.952 50 986 bom main 46 46 P_____O___P_P_ SH211982 -17.0425 122.187 30 -1 -16.5000 121.700 30 50 986 3.50000 -17.0351 122.224 1 31 -16.4850 121.695 TC 52 986 2 75
1982054S13123 1982 14 SI WA IAN 1982-03-03 00:00:00 TS -16.7456 122.017 50 985 bom main 54 54 O_____O___P_O_ jtwc_sh SH211982 -16.9000 122.100 30 -1 -16.6000 121.900 30 50 985 3.50000 -16.8823 122.169 1 32 -16.6000 121.900 TC 55 985 1 52
1982054S13123 1982 14 SI WA IAN 1982-03-03 03:00:00 TS -16.7314 121.989 50 984 bom main 54 54 P_____O___P_P_ SH211982 -16.7775 122.015 32 -1 -16.7000 121.900 30 50 984 3.50000 -16.7633 122.055 1 33 -16.6849 121.988 TC 55 984 1 266
1982054S13123 1982 14 SI WA IAN 1982-03-03 06:00:00 TS -16.7500 121.950 55 983 bom main 54 54 O_____O___O_O_ jtwc_sh SH211982 -16.7000 121.900 35 0 -16.8000 122.000 30 55 983 3.50000 -16.7000 121.900 2 35 -16.8000 122.000 TC 55 983 1 226
1982054S13123 1982 14 SI WA IAN 1982-03-03 09:00:00 TS -16.8138 121.898 55 982 bom main 54 48 P_____O___P_P_ SH211982 -16.6625 121.772 35 0 -16.9000 122.000 30 55 982 4.00000 -16.6929 121.768 2 36 -16.9999 122.052 TC 57 982 3 214
1982054S13123 1982 14 SI WA IAN 1982-03-03 12:00:00 TS -16.9612 121.799 55 981 bom main 54 54 O_____O___P_O_ jtwc_sh SH211982 -16.7000 121.600 35 0 -17.2000 122.000 30 55 981 4.00000 -16.7446 121.597 2 37 -17.2000 122.000 TC 60 981 4 232
1982054S13123 1982 14 SI WA IAN 1982-03-03 15:00:00 TS -17.0654 121.556 60 980 bom main 67 67 P_____O___P_P_ SH211982 -16.8124 121.387 37 0 -17.3000 121.700 30 60 980 4.00000 -16.8490 121.377 2 38 -17.3000 121.760 TC 62 978 6 246
1982054S13123 1982 14 SI WA IAN 1982-03-03 18:00:00 TS -17.2000 121.250 60 976 bom main 95 95 O_____O___O_O_ jtwc_sh SH211982 -17.0000 121.100 40 0 -17.4000 121.400 30 60 976 4.00000 -17.0000 121.100 2 40 -17.4000 121.400 TC 65 976 7 243
1982054S13123 1982 14 SI WA IAN 1982-03-03 21:00:00 TS -17.4015 120.879 65 972 bom main 129 129 P_____O___P_P_ SH211982 -17.2425 120.723 42 0 -17.6000 121.000 40 65 972 4.50000 -17.1862 120.758 2 42 -17.5773 121.037 TC 70 972 9 240
1982054S13123 1982 14 SI WA IAN 1982-03-04 00:00:00 TS -17.6282 120.465 75 968 bom main 169 169 O_____O___P_O_ jtwc_sh SH211982 -17.5000 120.300 45 0 -17.8000 120.600 40 75 968 4.50000 -17.4128 120.360 2 45 -17.8000 120.600 TC 75 968 10 241
1982054S13123 1982 14 SI WA IAN 1982-03-04 03:00:00 TS -17.8576 119.999 80 964 bom main 195 195 P_____O___P_P_ SH211982 -17.7074 119.900 47 0 -18.0000 120.100 40 80 964 5.00000 -17.6580 119.933 2 47 -18.0651 120.065 TC 77 966 10 243
1982054S13123 1982 14 SI WA IAN 1982-03-04 06:00:00 TS -18.1000 119.500 80 964 bom main 214 201 O_____O___O_O_ jtwc_sh SH211982 -17.9000 119.500 50 0 -18.3000 119.500 40 80 964 5.00000 -17.9000 119.500 2 50 -18.3000 119.500 TC 80 964 10 245
1982054S13123 1982 14 SI WA IAN 1982-03-04 09:00:00 TS -18.2794 119.050 80 964 bom main 201 192 P_____O___P_P_ SH211982 -18.0999 119.100 52 0 -18.5000 119.000 40 80 964 5.00000 -18.1026 119.116 2 52 -18.4149 118.985 TC 80 964 9 251
1982054S13123 1982 14 SI WA IAN 1982-03-04 12:00:00 TS -18.3998 118.607 80 964 bom main 197 193 O_____O___P_O_ jtwc_sh SH211982 -18.3000 118.700 55 0 -18.5000 118.500 40 80 964 5.00000 -18.2993 118.729 2 55 -18.5000 118.500 TC 80 964 9 252
1982054S13123 1982 14 SI WA IAN 1982-03-04 15:00:00 TS -18.5559 118.169 80 964 bom main 192 191 P_____O___P_P_ SH211982 -18.4998 118.315 57 0 -18.6000 118.000 40 80 964 5.00000 -18.4963 118.328 2 57 -18.6274 118.035 TC 80 964 9 247
1982054S13123 1982 14 SI WA IAN 1982-03-04 18:00:00 TS -18.7500 117.750 80 964 bom main 192 177 O_____O___O_O_ jtwc_sh SH211982 -18.7000 117.900 60 0 -18.8000 117.600 40 80 964 5.00000 -18.7000 117.900 2 60 -18.8000 117.600 TC 80 964 9 244
1982054S13123 1982 14 SI WA IAN 1982-03-04 21:00:00 TS -18.9632 117.284 80 964 bom main 177 156 P_____O___P_P_ SH211982 -18.8925 117.415 62 0 -19.0000 117.100 40 80 964 5.00000 -18.9181 117.413 2 61 -19.0423 117.207 TC 80 964 10 242
1982054S13123 1982 14 SI WA IAN 1982-03-05 00:00:00 TS -19.2107 116.850 80 964 bom main 156 135 O_____O___P_O_ jtwc_sh SH211982 -19.1000 116.900 65 1 -19.3000 116.800 40 80 964 5.00000 -19.1429 116.900 2 62 -19.3000 116.800 TC 80 964 10 241
1982054S13123 1982 14 SI WA IAN 1982-03-05 03:00:00 TS -19.4321 116.374 80 964 bom main 137 128 P_____O___P_P_ SH211982 -19.3499 116.393 65 1 -19.5000 116.400 40 80 964 5.00000 -19.3712 116.388 2 63 -19.5075 116.315 TC 80 964 10 245
1982054S13123 1982 14 SI WA IAN 1982-03-05 06:00:00 TS -19.6500 115.850 80 965 bom main 139 130 O_____O___O_O_ jtwc_sh SH211982 -19.6000 115.900 65 1 -19.7000 115.800 40 80 965 5.00000 -19.6000 115.900 4 65 -19.7000 115.800 TC 80 965 11 248
1982054S13123 1982 14 SI WA IAN 1982-03-05 09:00:00 TS -19.8510 115.282 80 966 bom main 145 145 P_____O___P_P_ SH211982 -19.7999 115.427 62 0 -19.9000 115.000 40 80 966 5.00000 -19.7964 115.438 4 61 -19.9076 115.263 TC 80 966 10 246
1982054S13123 1982 14 SI WA IAN 1982-03-05 12:00:00 TS -20.0493 114.902 80 967 bom main 161 152 O_____O___P_O_ jtwc_sh SH211982 -20.0000 115.000 60 0 -20.1000 114.800 40 80 967 5.00000 -19.9974 115.009 4 57 -20.1000 114.800 TC 80 967 8 240
1982054S13123 1982 14 SI WA IAN 1982-03-05 15:00:00 TS -20.2217 114.586 75 968 bom main 167 154 P_____O___P_P_ SH211982 -20.2274 114.627 55 0 -20.2000 114.600 40 75 968 4.50000 -20.2247 114.626 4 53 -20.2348 114.490 TC 77 968 7 235
1982054S13123 1982 14 SI WA IAN 1982-03-05 18:00:00 TS -20.4500 114.300 70 970 bom main 158 133 O_____O___O_O_ jtwc_sh SH211982 -20.5000 114.300 50 0 -20.4000 114.300 40 70 970 4.50000 -20.5000 114.300 2 50 -20.4000 114.300 TC 75 970 7 221
1982054S13123 1982 14 SI WA IAN 1982-03-05 21:00:00 TS -20.7581 114.083 70 972 bom main 123 90 P_____O___P_P_ SH211982 -20.8200 113.963 47 0 -20.7000 114.200 40 70 972 4.50000 -20.8575 113.998 2 47 -20.6549 114.170 TC 70 973 8 208
1982054S13123 1982 14 SI WA IAN 1982-03-06 00:00:00 TS -21.1155 113.915 65 976 bom main 90 49 O_____O___P_O_ jtwc_sh SH211982 -21.2000 113.700 45 0 -21.0000 114.100 40 65 976 4.50000 1006 -21.2621 113.758 2 45 -21.0000 114.100 TC 65 976 8 197
1982054S13123 1982 14 SI WA IAN 1982-03-06 03:00:00 TS -21.5583 113.823 60 980 bom main 39 15 P_____V___P_P_ SH211982 -21.6499 113.547 42 0 -21.5000 114.100 30 60 980 4.00000 1006 -21.6857 113.589 2 42 -21.3975 114.057 TC 60 980 9 190
1982054S13123 1982 14 SI WA IAN 1982-03-06 06:00:00 TS -22.0000 113.750 55 984 bom main 15 0 O_____O___O_O_ jtwc_sh SH211982 -22.1000 113.500 40 0 -21.9000 114.000 30 55 984 4.00000 1006 -22.1000 113.500 2 40 -21.9000 114.000 TC 55 984 10 189
1982054S13123 1982 14 SI WA IAN 1982-03-06 09:00:00 TS -22.5003 113.656 50 988 bom main 0 0 P_____O___P_P_ SH211982 -22.4650 113.520 40 0 -22.5000 113.800 30 50 988 -22.4560 113.475 2 38 -22.5801 113.828 TC 47 988 10 186
1982054S13123 1982 14 SI WA IAN 1982-03-06 12:00:00 TS -22.9999 113.632 40 992 bom main 20 10 O_____O___P_O_ jtwc_sh SH211982 -22.8000 113.600 40 0 -23.2000 113.700 30 40 992 -22.7997 113.530 2 37 -23.2000 113.700 TC 40 992 8 177
1982054S13123 1982 14 SI WA IAN 1982-03-06 15:00:00 TS -23.3278 113.723 35 996 bom main 10 0 P_____O___P_P_ SH211982 -23.1425 113.685 37 0 -23.5000 113.800 30 35 996 -23.1436 113.644 2 36 -23.5250 113.762 TC 35 994 6 161
1982054S13123 1982 14 SI WA IAN 1982-03-06 18:00:00 TS -23.6000 113.850 30 997 bom main 0 0 O_____O___O_O_ jtwc_sh SH211982 -23.5000 113.800 35 0 -23.7000 113.900 20 30 997 -23.5000 113.800 2 35 -23.7000 113.900 TC 30 997 6 156
1982054S13123 1982 14 SI WA IAN 1982-03-06 21:00:00 TS -23.8608 113.977 25 998 bom main 0 0 P_____O___P_P_ SH211982 -23.8925 113.928 32 -1 -23.8000 114.000 20 25 998 -23.8783 113.980 2 32 -23.8725 114.000 TC 30 998 6 155
1982054S13123 1982 14 SI WA IAN 1982-03-07 00:00:00 TS -24.1233 114.116 20 999 bom main 0 0 O_____O___P_O_ jtwc_sh SH211982 -24.3000 114.100 30 -1 -24.0000 114.100 20 20 999 -24.2754 114.176 2 30 -24.0000 114.100 TC 30 999 5 151
1982054S13123 1982 14 SI WA IAN 1982-03-07 03:00:00 TS -24.3029 114.245 20 1000 bom main 0 0 P_____O___P_P_ SH211982 -24.7026 114.332 27 -1 -24.1000 114.200 20 20 1000 -24.6847 114.385 2 27 -24.1149 114.178 TC 27 1000 3 139
1982054S13123 1982 14 SI WA IAN 1982-03-07 06:00:00 TS -24.3800 114.360 20 1002 bom main 0 0 O_____O___O_O_ jtwc_sh SH211982 -25.1000 114.600 25 -1 -24.2000 114.300 20 20 1002 -25.1000 114.600 1 25 -24.2000 114.300 TC 25 1002 3 84
1982054S13123 1982 14 SI WA IAN 1982-03-07 09:00:00 TS -24.2750 114.556 15 1003 bom main 0 0 ______O_____P_ SH211982 -1 -24.3000 114.600 20 15 1003 1 -24.2500 114.513 TC 22 1003 4 79
1982054S13123 1982 14 SI WA IAN 1982-03-07 12:00:00 TS -24.3000 114.800 15 1004 bom main 0 0 ______O_____O_ -1 -24.3000 114.800 20 15 1004 1 -24.3000 114.800 TC 20 1004 5 104
1982054S13123 1982 14 SI WA IAN 1982-03-07 15:00:00 TS -24.3938 115.069 15 1005 bom main 0 0 ______O_____P_ -1 -24.4000 115.000 20 15 1005 1 -24.3877 115.137 TC 17 1005 7 107
1982054S13123 1982 14 SI WA IAN 1982-03-07 18:00:00 TS -24.5000 115.500 15 1006 bom main 0 ______O_____O_ -1 -24.5000 115.500 20 15 1006 -24.5000 115.500 TC 15 1006 8 105

IBTrACS Databaseについて

本データベースは、米国NOAAが公開する1842年以降の世界の熱帯低気圧のベストトラックデータアーカイブInternational Best Track Archive for Climate Stewardship (IBTrACS)を、ウェブで閲覧しやすい形式に変換したものです。

最終更新日:2021-10-08